sensor_id;sensor_type;location;lat;lon;timestamp;pressure;altitude;pressure_sealevel;temperature;humidity
10700;BME280;5401;41.986;21.452;2022-08-19T00:00:41;98014.13;;;27.26;45.22
10700;BME280;5401;41.986;21.452;2022-08-19T00:03:09;98014.13;;;27.26;45.31
10700;BME280;5401;41.986;21.452;2022-08-19T00:05:37;98021.59;;;27.17;45.50
10700;BME280;5401;41.986;21.452;2022-08-19T00:08:04;98019.66;;;27.18;45.38
10700;BME280;5401;41.986;21.452;2022-08-19T00:10:32;98013.97;;;27.23;45.40
10700;BME280;5401;41.986;21.452;2022-08-19T00:13:02;98010.44;;;27.22;45.78
10700;BME280;5401;41.986;21.452;2022-08-19T00:15:30;98010.91;;;27.24;46.08
10700;BME280;5401;41.986;21.452;2022-08-19T00:17:57;98010.09;;;27.24;46.13
10700;BME280;5401;41.986;21.452;2022-08-19T00:20:25;98013.97;;;27.23;45.59
10700;BME280;5401;41.986;21.452;2022-08-19T00:22:53;98008.34;;;27.19;45.91
10700;BME280;5401;41.986;21.452;2022-08-19T00:25:21;98016.59;;;27.19;45.89
10700;BME280;5401;41.986;21.452;2022-08-19T00:27:49;98010.94;;;27.16;46.19
10700;BME280;5401;41.986;21.452;2022-08-19T00:30:18;98022.72;;;27.16;46.49
10700;BME280;5401;41.986;21.452;2022-08-19T00:32:46;98021.44;;;27.14;45.98
10700;BME280;5401;41.986;21.452;2022-08-19T00:35:13;98023.88;;;27.15;46.37
10700;BME280;5401;41.986;21.452;2022-08-19T00:37:42;98019.50;;;27.14;46.78
10700;BME280;5401;41.986;21.452;2022-08-19T00:40:12;98024.19;;;27.14;46.61
10700;BME280;5401;41.986;21.452;2022-08-19T00:42:40;98011.25;;;27.14;46.07
10700;BME280;5401;41.986;21.452;2022-08-19T00:45:11;98014.66;;;27.11;46.68
10700;BME280;5401;41.986;21.452;2022-08-19T00:47:41;98015.28;;;27.17;46.60
10700;BME280;5401;41.986;21.452;2022-08-19T00:50:09;98011.09;;;27.19;46.26
10700;BME280;5401;41.986;21.452;2022-08-19T00:52:42;98017.22;;;27.16;46.76
10700;BME280;5401;41.986;21.452;2022-08-19T00:55:15;98018.22;;;27.12;46.79
10700;BME280;5401;41.986;21.452;2022-08-19T00:57:52;98013.38;;;27.09;47.26
10700;BME280;5401;41.986;21.452;2022-08-19T01:00:21;98016.44;;;27.07;47.20
10700;BME280;5401;41.986;21.452;2022-08-19T01:02:52;98016.44;;;27.07;47.06
10700;BME280;5401;41.986;21.452;2022-08-19T01:05:23;98008.69;;;27.09;46.94
10700;BME280;5401;41.986;21.452;2022-08-19T01:07:54;98009.31;;;27.06;46.65
10700;BME280;5401;41.986;21.452;2022-08-19T01:10:24;98015.47;;;27.03;46.82
10700;BME280;5401;41.986;21.452;2022-08-19T01:12:53;98008.53;;;26.97;46.75
10700;BME280;5401;41.986;21.452;2022-08-19T01:15:24;98009.81;;;26.91;46.82
10700;BME280;5401;41.986;21.452;2022-08-19T01:17:56;98012.09;;;26.90;46.75
10700;BME280;5401;41.986;21.452;2022-08-19T01:20:24;98000.94;;;26.86;46.95
10700;BME280;5401;41.986;21.452;2022-08-19T01:22:55;98011.78;;;26.83;47.42
10700;BME280;5401;41.986;21.452;2022-08-19T01:25:28;98012.41;;;26.80;47.48
10700;BME280;5401;41.986;21.452;2022-08-19T01:27:57;98007.56;;;26.77;47.01
10700;BME280;5401;41.986;21.452;2022-08-19T01:30:27;98003.50;;;26.74;47.32
10700;BME280;5401;41.986;21.452;2022-08-19T01:32:57;98012.06;;;26.73;47.00
10700;BME280;5401;41.986;21.452;2022-08-19T01:35:28;98012.56;;;26.66;47.74
10700;BME280;5401;41.986;21.452;2022-08-19T01:38:00;98012.41;;;26.63;47.61
10700;BME280;5401;41.986;21.452;2022-08-19T01:40:30;98009.66;;;26.63;47.64
10700;BME280;5401;41.986;21.452;2022-08-19T01:42:59;97999.78;;;26.62;47.54
10700;BME280;5401;41.986;21.452;2022-08-19T01:45:28;98003.97;;;26.59;47.53
10700;BME280;5401;41.986;21.452;2022-08-19T01:47:56;97989.75;;;26.57;48.00
10700;BME280;5401;41.986;21.452;2022-08-19T01:50:26;97994.75;;;26.55;48.01
10700;BME280;5401;41.986;21.452;2022-08-19T01:52:54;97994.44;;;26.57;47.79
10700;BME280;5401;41.986;21.452;2022-08-19T01:55:23;98002.03;;;26.60;47.41
10700;BME280;5401;41.986;21.452;2022-08-19T01:57:53;97992.34;;;26.54;47.82
10700;BME280;5401;41.986;21.452;2022-08-19T02:00:24;97994.28;;;26.45;48.20
10700;BME280;5401;41.986;21.452;2022-08-19T02:02:55;97998.31;;;26.39;47.82
10700;BME280;5401;41.986;21.452;2022-08-19T02:05:23;97996.84;;;26.25;48.08
10700;BME280;5401;41.986;21.452;2022-08-19T02:07:51;98000.03;;;26.10;48.42
10700;BME280;5401;41.986;21.452;2022-08-19T02:10:20;97998.06;;;26.02;48.19
10700;BME280;5401;41.986;21.452;2022-08-19T02:12:50;98005.00;;;26.00;48.95
10700;BME280;5401;41.986;21.452;2022-08-19T02:15:18;97998.66;;;25.91;48.65
10700;BME280;5401;41.986;21.452;2022-08-19T02:17:46;97997.53;;;25.92;48.63
10700;BME280;5401;41.986;21.452;2022-08-19T02:20:15;97995.22;;;25.77;49.43
10700;BME280;5401;41.986;21.452;2022-08-19T02:22:44;97996.94;;;25.65;49.39
10700;BME280;5401;41.986;21.452;2022-08-19T02:25:13;97990.56;;;25.47;49.65
10700;BME280;5401;41.986;21.452;2022-08-19T02:27:42;97990.66;;;25.34;50.03
10700;BME280;5401;41.986;21.452;2022-08-19T02:30:14;97994.78;;;25.23;49.83
10700;BME280;5401;41.986;21.452;2022-08-19T02:32:43;97998.63;;;25.22;50.26
10700;BME280;5401;41.986;21.452;2022-08-19T02:35:11;98001.06;;;25.24;50.65
10700;BME280;5401;41.986;21.452;2022-08-19T02:37:39;98006.75;;;25.27;50.39
10700;BME280;5401;41.986;21.452;2022-08-19T02:40:24;98009.00;;;25.25;50.35
10700;BME280;5401;41.986;21.452;2022-08-19T02:42:51;98003.66;;;25.29;50.51
10700;BME280;5401;41.986;21.452;2022-08-19T02:45:20;98008.25;;;25.33;50.52
10700;BME280;5401;41.986;21.452;2022-08-19T02:47:49;98007.09;;;25.34;50.93
10700;BME280;5401;41.986;21.452;2022-08-19T02:50:16;98010.28;;;25.28;50.93
10700;BME280;5401;41.986;21.452;2022-08-19T02:52:44;98009.16;;;25.29;50.84
10700;BME280;5401;41.986;21.452;2022-08-19T02:55:12;98011.28;;;25.32;51.18
10700;BME280;5401;41.986;21.452;2022-08-19T02:57:39;98024.19;;;25.31;50.95
10700;BME280;5401;41.986;21.452;2022-08-19T03:00:09;98022.56;;;25.30;51.03
10700;BME280;5401;41.986;21.452;2022-08-19T03:02:39;98026.25;;;25.26;51.35
10700;BME280;5401;41.986;21.452;2022-08-19T03:05:09;98029.63;;;25.23;51.52
10700;BME280;5401;41.986;21.452;2022-08-19T03:07:37;98031.03;;;25.20;51.55
10700;BME280;5401;41.986;21.452;2022-08-19T03:10:05;98029.25;;;25.16;51.47
10700;BME280;5401;41.986;21.452;2022-08-19T03:12:35;98027.63;;;25.15;51.60
10700;BME280;5401;41.986;21.452;2022-08-19T03:15:04;98025.19;;;25.13;51.67
10700;BME280;5401;41.986;21.452;2022-08-19T03:17:33;98021.28;;;25.06;51.91
10700;BME280;5401;41.986;21.452;2022-08-19T03:20:03;98021.72;;;25.00;51.82
10700;BME280;5401;41.986;21.452;2022-08-19T03:22:31;98031.06;;;24.99;51.99
10700;BME280;5401;41.986;21.452;2022-08-19T03:24:59;98030.72;;;25.00;51.93
10700;BME280;5401;41.986;21.452;2022-08-19T03:27:27;98029.13;;;24.99;52.03
10700;BME280;5401;41.986;21.452;2022-08-19T03:29:55;98035.72;;;24.98;52.17
10700;BME280;5401;41.986;21.452;2022-08-19T03:32:23;98040.69;;;24.96;51.94
10700;BME280;5401;41.986;21.452;2022-08-19T03:34:50;98050.84;;;24.96;52.24
10700;BME280;5401;41.986;21.452;2022-08-19T03:37:20;98037.94;;;24.96;52.41
10700;BME280;5401;41.986;21.452;2022-08-19T03:39:48;98045.50;;;24.91;52.29
10700;BME280;5401;41.986;21.452;2022-08-19T03:42:16;98045.41;;;24.82;52.57
10700;BME280;5401;41.986;21.452;2022-08-19T03:44:43;98044.41;;;24.78;52.66
10700;BME280;5401;41.986;21.452;2022-08-19T03:47:12;98044.50;;;24.73;52.56
10700;BME280;5401;41.986;21.452;2022-08-19T03:49:42;98048.19;;;24.69;52.48
10700;BME280;5401;41.986;21.452;2022-08-19T03:52:10;98054.75;;;24.68;52.58
10700;BME280;5401;41.986;21.452;2022-08-19T03:54:39;98046.97;;;24.62;52.54
10700;BME280;5401;41.986;21.452;2022-08-19T03:57:07;98055.03;;;24.58;52.96
10700;BME280;5401;41.986;21.452;2022-08-19T03:59:36;98061.91;;;24.56;52.68
10700;BME280;5401;41.986;21.452;2022-08-19T04:02:08;98060.31;;;24.55;52.78
10700;BME280;5401;41.986;21.452;2022-08-19T04:04:36;98060.91;;;24.52;52.90
10700;BME280;5401;41.986;21.452;2022-08-19T04:07:05;98063.34;;;24.53;52.88
10700;BME280;5401;41.986;21.452;2022-08-19T04:09:34;98067.72;;;24.54;52.97
10700;BME280;5401;41.986;21.452;2022-08-19T04:12:04;98064.03;;;24.59;52.85
10700;BME280;5401;41.986;21.452;2022-08-19T04:14:33;98071.09;;;24.73;52.76
10700;BME280;5401;41.986;21.452;2022-08-19T04:17:01;98072.09;;;24.77;52.55
10700;BME280;5401;41.986;21.452;2022-08-19T04:19:31;98067.78;;;24.84;52.78
10700;BME280;5401;41.986;21.452;2022-08-19T04:21:59;98075.91;;;25.03;52.19
10700;BME280;5401;41.986;21.452;2022-08-19T04:24:26;98082.06;;;25.30;51.90
10700;BME280;5401;41.986;21.452;2022-08-19T04:26:54;98085.16;;;25.58;51.46
10700;BME280;5401;41.986;21.452;2022-08-19T04:29:25;98090.84;;;25.92;50.93
10700;BME280;5401;41.986;21.452;2022-08-19T04:31:55;98091.81;;;26.26;50.40
10700;BME280;5401;41.986;21.452;2022-08-19T04:34:25;98097.53;;;26.63;49.63
10700;BME280;5401;41.986;21.452;2022-08-19T04:36:54;98099.72;;;26.99;49.01
10700;BME280;5401;41.986;21.452;2022-08-19T04:39:24;98102.28;;;27.38;48.45
10700;BME280;5401;41.986;21.452;2022-08-19T04:42:12;98096.06;;;27.83;47.80
10700;BME280;5401;41.986;21.452;2022-08-19T04:44:59;98105.66;;;28.22;47.53
10700;BME280;5401;41.986;21.452;2022-08-19T04:47:26;98093.97;;;28.54;46.69
10700;BME280;5401;41.986;21.452;2022-08-19T04:49:54;98099.78;;;28.89;46.16
10700;BME280;5401;41.986;21.452;2022-08-19T04:52:22;98088.50;;;29.23;45.99
10700;BME280;5401;41.986;21.452;2022-08-19T04:54:50;98086.34;;;29.60;45.37
10700;BME280;5401;41.986;21.452;2022-08-19T04:57:17;98095.22;;;29.98;45.01
10700;BME280;5401;41.986;21.452;2022-08-19T04:59:45;98095.63;;;30.32;44.27
10700;BME280;5401;41.986;21.452;2022-08-19T05:02:14;98096.06;;;30.57;43.56
10700;BME280;5401;41.986;21.452;2022-08-19T05:04:42;98091.69;;;30.80;43.04
10700;BME280;5401;41.986;21.452;2022-08-19T05:07:10;98092.56;;;31.08;43.29
10700;BME280;5401;41.986;21.452;2022-08-19T05:09:37;98095.50;;;31.38;42.33
10700;BME280;5401;41.986;21.452;2022-08-19T05:12:06;98104.50;;;31.63;41.75
10700;BME280;5401;41.986;21.452;2022-08-19T05:14:33;98099.16;;;31.97;41.27
10700;BME280;5401;41.986;21.452;2022-08-19T05:17:02;98110.09;;;32.20;40.87
10700;BME280;5401;41.986;21.452;2022-08-19T05:19:31;98107.03;;;32.25;40.85
10700;BME280;5401;41.986;21.452;2022-08-19T05:22:16;98104.38;;;32.29;40.49
10700;BME280;5401;41.986;21.452;2022-08-19T05:25:04;98109.91;;;32.59;40.75
10700;BME280;5401;41.986;21.452;2022-08-19T05:27:32;98100.31;;;32.87;40.01
10700;BME280;5401;41.986;21.452;2022-08-19T05:30:00;98101.47;;;33.20;39.70
10700;BME280;5401;41.986;21.452;2022-08-19T05:32:28;98112.09;;;33.52;39.36
10700;BME280;5401;41.986;21.452;2022-08-19T05:34:57;98104.50;;;33.87;38.83
10700;BME280;5401;41.986;21.452;2022-08-19T05:37:25;98108.69;;;34.18;38.27
10700;BME280;5401;41.986;21.452;2022-08-19T05:39:53;98106.56;;;34.31;37.96
10700;BME280;5401;41.986;21.452;2022-08-19T05:42:22;98104.44;;;34.24;38.03
10700;BME280;5401;41.986;21.452;2022-08-19T05:44:50;98114.13;;;34.34;37.54
10700;BME280;5401;41.986;21.452;2022-08-19T05:47:18;98107.41;;;34.35;37.72
10700;BME280;5401;41.986;21.452;2022-08-19T05:49:46;98102.88;;;34.27;37.42
10700;BME280;5401;41.986;21.452;2022-08-19T05:52:18;98108.34;;;34.01;37.67
10700;BME280;5401;41.986;21.452;2022-08-19T05:54:46;98109.25;;;33.68;38.23
10700;BME280;5401;41.986;21.452;2022-08-19T05:57:17;98112.03;;;33.49;38.32
10700;BME280;5401;41.986;21.452;2022-08-19T05:59:45;98120.00;;;33.50;38.80
10700;BME280;5401;41.986;21.452;2022-08-19T06:02:16;98111.22;;;33.48;38.69
10700;BME280;5401;41.986;21.452;2022-08-19T06:04:43;98108.31;;;33.60;38.65
10700;BME280;5401;41.986;21.452;2022-08-19T06:07:11;98098.06;;;33.64;38.16
10700;BME280;5401;41.986;21.452;2022-08-19T06:09:41;98123.59;;;33.70;38.40
10700;BME280;5401;41.986;21.452;2022-08-19T06:12:08;98118.22;;;33.24;38.59
10700;BME280;5401;41.986;21.452;2022-08-19T06:14:36;98119.63;;;32.99;39.04
10700;BME280;5401;41.986;21.452;2022-08-19T06:17:04;98115.09;;;32.91;39.24
10700;BME280;5401;41.986;21.452;2022-08-19T06:19:32;98119.78;;;33.06;38.65
10700;BME280;5401;41.986;21.452;2022-08-19T06:22:00;98125.84;;;32.93;38.70
10700;BME280;5401;41.986;21.452;2022-08-19T06:24:29;98121.16;;;32.81;39.18
10700;BME280;5401;41.986;21.452;2022-08-19T06:27:00;98123.66;;;32.86;39.09
10700;BME280;5401;41.986;21.452;2022-08-19T06:29:28;98128.25;;;32.79;39.10
10700;BME280;5401;41.986;21.452;2022-08-19T06:31:59;98135.50;;;32.83;38.54
10700;BME280;5401;41.986;21.452;2022-08-19T06:34:29;98132.31;;;33.00;39.16
10700;BME280;5401;41.986;21.452;2022-08-19T06:36:59;98130.00;;;33.36;38.11
10700;BME280;5401;41.986;21.452;2022-08-19T06:39:30;98120.00;;;33.50;38.13
10700;BME280;5401;41.986;21.452;2022-08-19T06:42:02;98131.94;;;33.70;38.06
10700;BME280;5401;41.986;21.452;2022-08-19T06:44:34;98117.78;;;33.97;37.68
10700;BME280;5401;41.986;21.452;2022-08-19T06:47:04;98125.22;;;34.30;37.36
10700;BME280;5401;41.986;21.452;2022-08-19T06:49:32;98118.59;;;34.60;37.01
10700;BME280;5401;41.986;21.452;2022-08-19T06:52:01;98120.72;;;34.92;36.47
10700;BME280;5401;41.986;21.452;2022-08-19T06:54:29;98123.91;;;34.94;36.21
10700;BME280;5401;41.986;21.452;2022-08-19T06:57:00;98117.41;;;35.09;36.48
10700;BME280;5401;41.986;21.452;2022-08-19T06:59:31;98120.50;;;35.30;36.27
10700;BME280;5401;41.986;21.452;2022-08-19T07:02:01;98115.91;;;35.44;35.66
10700;BME280;5401;41.986;21.452;2022-08-19T07:04:30;98112.09;;;35.56;35.50
10700;BME280;5401;41.986;21.452;2022-08-19T07:06:59;98109.44;;;35.66;35.63
10700;BME280;5401;41.986;21.452;2022-08-19T07:09:28;98112.03;;;35.81;35.63
10700;BME280;5401;41.986;21.452;2022-08-19T07:11:56;98113.28;;;35.87;35.42
10700;BME280;5401;41.986;21.452;2022-08-19T07:14:26;98113.16;;;35.73;35.12
10700;BME280;5401;41.986;21.452;2022-08-19T07:16:56;98116.94;;;35.62;35.13
10700;BME280;5401;41.986;21.452;2022-08-19T07:19:25;98121.09;;;35.75;35.45
10700;BME280;5401;41.986;21.452;2022-08-19T07:21:54;98113.38;;;35.62;35.04
10700;BME280;5401;41.986;21.452;2022-08-19T07:24:23;98112.00;;;35.49;35.10
10700;BME280;5401;41.986;21.452;2022-08-19T07:26:53;98125.38;;;35.11;35.52
10700;BME280;5401;41.986;21.452;2022-08-19T07:29:22;98124.19;;;34.86;35.88
10700;BME280;5401;41.986;21.452;2022-08-19T07:31:52;98127.53;;;34.95;35.94
10700;BME280;5401;41.986;21.452;2022-08-19T07:34:22;98125.19;;;35.00;35.48
10700;BME280;5401;41.986;21.452;2022-08-19T07:36:50;98117.72;;;35.30;35.08
10700;BME280;5401;41.986;21.452;2022-08-19T07:39:20;98116.41;;;35.50;35.02
10700;BME280;5401;41.986;21.452;2022-08-19T07:41:48;98119.97;;;35.79;34.50
10700;BME280;5401;41.986;21.452;2022-08-19T07:44:17;98109.66;;;35.83;34.35
10700;BME280;5401;41.986;21.452;2022-08-19T07:46:48;98124.16;;;35.96;34.82
10700;BME280;5401;41.986;21.452;2022-08-19T07:49:18;98129.72;;;36.28;34.40
10700;BME280;5401;41.986;21.452;2022-08-19T07:51:48;98121.50;;;36.45;34.14
10700;BME280;5401;41.986;21.452;2022-08-19T07:54:17;98114.91;;;36.60;33.78
10700;BME280;5401;41.986;21.452;2022-08-19T07:56:45;98122.72;;;36.91;33.29
10700;BME280;5401;41.986;21.452;2022-08-19T07:59:13;98112.88;;;37.11;33.47
10700;BME280;5401;41.986;21.452;2022-08-19T08:01:41;98113.28;;;37.12;33.55
10700;BME280;5401;41.986;21.452;2022-08-19T08:04:09;98109.75;;;37.22;33.17
10700;BME280;5401;41.986;21.452;2022-08-19T08:06:55;98106.69;;;37.41;32.85
10700;BME280;5401;41.986;21.452;2022-08-19T08:09:41;98109.94;;;37.50;32.89
10700;BME280;5401;41.986;21.452;2022-08-19T08:12:11;98095.88;;;37.36;32.61
10700;BME280;5401;41.986;21.452;2022-08-19T08:14:42;98093.09;;;37.40;32.62
10700;BME280;5401;41.986;21.452;2022-08-19T08:17:14;98097.81;;;37.29;32.67
10700;BME280;5401;41.986;21.452;2022-08-19T08:19:43;98101.78;;;37.24;32.88
10700;BME280;5401;41.986;21.452;2022-08-19T08:22:15;98091.38;;;37.11;32.72
10700;BME280;5401;41.986;21.452;2022-08-19T08:25:13;98089.56;;;36.86;33.18
10700;BME280;5401;41.986;21.452;2022-08-19T08:27:43;98094.34;;;36.85;32.84
10700;BME280;5401;41.986;21.452;2022-08-19T08:30:14;98078.88;;;36.95;33.27
10700;BME280;5401;41.986;21.452;2022-08-19T08:32:42;98082.63;;;37.19;33.13
10700;BME280;5401;41.986;21.452;2022-08-19T08:35:12;98081.78;;;37.12;33.21
10700;BME280;5401;41.986;21.452;2022-08-19T08:37:42;98082.97;;;37.14;32.89
10700;BME280;5401;41.986;21.452;2022-08-19T08:40:17;98080.94;;;37.05;33.03
10700;BME280;5401;41.986;21.452;2022-08-19T08:42:49;98083.56;;;36.80;33.24
10700;BME280;5401;41.986;21.452;2022-08-19T08:45:18;98076.78;;;36.81;32.95
10700;BME280;5401;41.986;21.452;2022-08-19T08:47:49;98070.56;;;37.09;32.81
10700;BME280;5401;41.986;21.452;2022-08-19T08:50:21;98072.31;;;37.34;32.88
10700;BME280;5401;41.986;21.452;2022-08-19T08:52:56;98065.19;;;37.47;32.46
10700;BME280;5401;41.986;21.452;2022-08-19T08:55:26;98073.31;;;37.76;32.49
10700;BME280;5401;41.986;21.452;2022-08-19T08:57:59;98067.75;;;37.89;32.20
10700;BME280;5401;41.986;21.452;2022-08-19T09:00:29;98070.19;;;37.94;31.64
10700;BME280;5401;41.986;21.452;2022-08-19T09:02:58;98066.22;;;37.99;31.87
10700;BME280;5401;41.986;21.452;2022-08-19T09:05:36;98063.81;;;37.94;31.55
10700;BME280;5401;41.986;21.452;2022-08-19T09:08:11;98062.16;;;37.83;31.74
10700;BME280;5401;41.986;21.452;2022-08-19T09:10:44;98057.75;;;37.82;31.44
10700;BME280;5401;41.986;21.452;2022-08-19T09:13:21;98043.38;;;37.80;31.38
10700;BME280;5401;41.986;21.452;2022-08-19T09:15:55;98049.44;;;37.99;31.26
10700;BME280;5401;41.986;21.452;2022-08-19T09:18:24;98036.25;;;38.10;31.04
10700;BME280;5401;41.986;21.452;2022-08-19T09:20:52;98033.44;;;38.10;31.33
10700;BME280;5401;41.986;21.452;2022-08-19T09:23:21;98030.28;;;38.08;31.06
10700;BME280;5401;41.986;21.452;2022-08-19T09:25:50;98039.47;;;38.15;30.86
10700;BME280;5401;41.986;21.452;2022-08-19T09:28:18;98043.09;;;38.26;30.59
10700;BME280;5401;41.986;21.452;2022-08-19T09:30:46;98036.25;;;38.10;31.16
10700;BME280;5401;41.986;21.452;2022-08-19T09:33:13;98031.06;;;38.25;30.70
10700;BME280;5401;41.986;21.452;2022-08-19T09:35:42;98025.06;;;38.27;30.71
10700;BME280;5401;41.986;21.452;2022-08-19T09:38:09;98024.69;;;38.25;30.27
10700;BME280;5401;41.986;21.452;2022-08-19T09:40:38;98015.09;;;38.40;30.10
10700;BME280;5401;41.986;21.452;2022-08-19T09:43:07;98007.91;;;38.63;30.22
10700;BME280;5401;41.986;21.452;2022-08-19T09:45:36;98013.09;;;38.89;29.99
10700;BME280;5401;41.986;21.452;2022-08-19T09:48:04;98011.03;;;39.03;29.99
10700;BME280;5401;41.986;21.452;2022-08-19T09:50:32;98013.03;;;39.06;29.56
10700;BME280;5401;41.986;21.452;2022-08-19T09:53:01;98009.88;;;38.83;29.58
10700;BME280;5401;41.986;21.452;2022-08-19T09:55:28;98003.09;;;38.50;29.94
10700;BME280;5401;41.986;21.452;2022-08-19T09:57:58;97999.91;;;38.30;29.75
10700;BME280;5401;41.986;21.452;2022-08-19T10:00:26;97995.88;;;38.18;29.60
10700;BME280;5401;41.986;21.452;2022-08-19T10:02:54;97992.31;;;38.00;30.21
10700;BME280;5401;41.986;21.452;2022-08-19T10:05:21;97984.69;;;38.18;30.06
10700;BME280;5401;41.986;21.452;2022-08-19T10:08:09;97978.34;;;38.48;29.54
10700;BME280;5401;41.986;21.452;2022-08-19T10:10:38;97972.72;;;38.58;29.41
10700;BME280;5401;41.986;21.452;2022-08-19T10:13:07;97970.28;;;38.67;29.42
10700;BME280;5401;41.986;21.452;2022-08-19T10:15:35;97965.47;;;38.71;29.15
10700;BME280;5401;41.986;21.452;2022-08-19T10:18:05;97957.88;;;38.89;29.15
10700;BME280;5401;41.986;21.452;2022-08-19T10:20:33;97957.78;;;39.13;28.93
10700;BME280;5401;41.986;21.452;2022-08-19T10:23:02;97946.91;;;39.29;28.75
10700;BME280;5401;41.986;21.452;2022-08-19T10:25:32;97950.50;;;39.30;28.28
10700;BME280;5401;41.986;21.452;2022-08-19T10:28:01;97944.97;;;39.19;28.41
10700;BME280;5401;41.986;21.452;2022-08-19T10:30:30;97938.91;;;39.24;28.39
10700;BME280;5401;41.986;21.452;2022-08-19T10:32:57;97937.69;;;39.29;28.54
10700;BME280;5401;41.986;21.452;2022-08-19T10:35:25;97937.34;;;39.23;28.36
10700;BME280;5401;41.986;21.452;2022-08-19T10:37:55;97932.22;;;39.01;28.66
10700;BME280;5401;41.986;21.452;2022-08-19T10:40:25;97924.25;;;38.82;28.69
10700;BME280;5401;41.986;21.452;2022-08-19T10:42:54;97912.72;;;38.63;28.74
10700;BME280;5401;41.986;21.452;2022-08-19T10:45:22;97923.13;;;38.59;29.09
10700;BME280;5401;41.986;21.452;2022-08-19T10:47:52;97914.38;;;38.47;28.98
10700;BME280;5401;41.986;21.452;2022-08-19T10:50:20;97903.53;;;38.52;28.50
10700;BME280;5401;41.986;21.452;2022-08-19T10:53:05;97905.50;;;38.79;28.42
10700;BME280;5401;41.986;21.452;2022-08-19T10:55:34;97914.28;;;38.78;28.40
10700;BME280;5401;41.986;21.452;2022-08-19T10:58:20;97911.03;;;38.86;28.24
10700;BME280;5401;41.986;21.452;2022-08-19T11:00:53;97895.81;;;38.94;28.34
10700;BME280;5401;41.986;21.452;2022-08-19T11:03:23;97900.97;;;39.02;28.07
10700;BME280;5401;41.986;21.452;2022-08-19T11:05:58;97897.78;;;39.04;28.03
10700;BME280;5401;41.986;21.452;2022-08-19T11:08:25;97891.31;;;39.10;27.71
10700;BME280;5401;41.986;21.452;2022-08-19T11:10:54;97878.94;;;39.11;27.76
10700;BME280;5401;41.986;21.452;2022-08-19T11:13:25;97887.69;;;39.17;27.80
10700;BME280;5401;41.986;21.452;2022-08-19T11:16:00;97881.69;;;39.22;27.64
10700;BME280;5401;41.986;21.452;2022-08-19T11:18:30;97871.66;;;39.24;27.45
10700;BME280;5401;41.986;21.452;2022-08-19T11:21:05;97866.84;;;39.32;27.36
10700;BME280;5401;41.986;21.452;2022-08-19T11:23:34;97871.66;;;39.31;27.01
10700;BME280;5401;41.986;21.452;2022-08-19T11:26:01;97866.91;;;39.18;26.93
10700;BME280;5401;41.986;21.452;2022-08-19T11:28:29;97863.31;;;39.10;27.10
10700;BME280;5401;41.986;21.452;2022-08-19T11:30:57;97861.72;;;39.13;27.01
10700;BME280;5401;41.986;21.452;2022-08-19T11:33:24;97850.88;;;39.25;27.04
10700;BME280;5401;41.986;21.452;2022-08-19T11:35:57;97849.88;;;39.49;26.61
10700;BME280;5401;41.986;21.452;2022-08-19T11:38:24;97840.19;;;39.64;26.70
10700;BME280;5401;41.986;21.452;2022-08-19T11:40:56;97840.69;;;39.45;26.61
10700;BME280;5401;41.986;21.452;2022-08-19T11:43:24;97831.59;;;39.31;26.64
10700;BME280;5401;41.986;21.452;2022-08-19T11:45:53;97835.69;;;39.16;26.68
10700;BME280;5401;41.986;21.452;2022-08-19T11:48:22;97823.38;;;38.96;26.49
10700;BME280;5401;41.986;21.452;2022-08-19T11:50:50;97826.25;;;38.89;26.38
10700;BME280;5401;41.986;21.452;2022-08-19T11:53:20;97833.41;;;38.97;26.60
10700;BME280;5401;41.986;21.452;2022-08-19T11:55:48;97819.06;;;38.85;26.51
10700;BME280;5401;41.986;21.452;2022-08-19T11:58:17;97823.47;;;38.72;26.50
10700;BME280;5401;41.986;21.452;2022-08-19T12:00:45;97821.50;;;38.65;26.43
10700;BME280;5401;41.986;21.452;2022-08-19T12:03:13;97820.69;;;38.72;26.29
10700;BME280;5401;41.986;21.452;2022-08-19T12:05:41;97807.53;;;38.65;26.27
10700;BME280;5401;41.986;21.452;2022-08-19T12:08:09;97811.09;;;38.69;26.48
10700;BME280;5401;41.986;21.452;2022-08-19T12:10:40;97798.63;;;38.84;26.37
10700;BME280;5401;41.986;21.452;2022-08-19T12:13:08;97796.16;;;38.96;26.23
10700;BME280;5401;41.986;21.452;2022-08-19T12:15:37;97799.22;;;39.23;26.00
10700;BME280;5401;41.986;21.452;2022-08-19T12:18:06;97794.66;;;39.42;25.44
10700;BME280;5401;41.986;21.452;2022-08-19T12:20:35;97788.66;;;39.44;25.72
10700;BME280;5401;41.986;21.452;2022-08-19T12:23:03;97792.28;;;39.41;25.89
10700;BME280;5401;41.986;21.452;2022-08-19T12:25:31;97790.69;;;39.40;25.74
10700;BME280;5401;41.986;21.452;2022-08-19T12:28:00;97790.69;;;39.43;25.80
10700;BME280;5401;41.986;21.452;2022-08-19T12:30:28;97778.41;;;39.27;25.89
10700;BME280;5401;41.986;21.452;2022-08-19T12:32:55;97781.25;;;39.13;25.90
10700;BME280;5401;41.986;21.452;2022-08-19T12:35:23;97778.03;;;39.18;25.81
10700;BME280;5401;41.986;21.452;2022-08-19T12:37:50;97773.09;;;39.39;25.73
10700;BME280;5401;41.986;21.452;2022-08-19T12:40:18;97770.53;;;39.59;25.87
10700;BME280;5401;41.986;21.452;2022-08-19T12:42:46;97777.75;;;39.60;25.56
10700;BME280;5401;41.986;21.452;2022-08-19T12:45:19;97764.53;;;39.60;25.64
10700;BME280;5401;41.986;21.452;2022-08-19T12:47:48;97777.25;;;39.68;25.53
10700;BME280;5401;41.986;21.452;2022-08-19T12:50:15;97770.03;;;39.70;25.50
10700;BME280;5401;41.986;21.452;2022-08-19T12:52:43;97758.25;;;39.86;25.43
10700;BME280;5401;41.986;21.452;2022-08-19T12:55:11;97751.97;;;40.11;25.45
10700;BME280;5401;41.986;21.452;2022-08-19T12:57:38;97752.91;;;40.35;25.07
10700;BME280;5401;41.986;21.452;2022-08-19T13:00:09;97751.84;;;40.58;24.73
10700;BME280;5401;41.986;21.452;2022-08-19T13:02:40;97747.56;;;40.47;24.84
10700;BME280;5401;41.986;21.452;2022-08-19T13:05:10;97740.78;;;40.44;24.84
10700;BME280;5401;41.986;21.452;2022-08-19T13:07:38;97741.31;;;40.62;24.74
10700;BME280;5401;41.986;21.452;2022-08-19T13:10:08;97745.13;;;40.49;24.79
10700;BME280;5401;41.986;21.452;2022-08-19T13:12:37;97735.44;;;40.20;25.02